sensor_id;sensor_type;location;lat;lon;timestamp;pressure;altitude;pressure_sealevel;temperature;humidity
42337;BME280;27987;51.468;5.464;2022-08-04T00:01:35;101068.72;;;25.20;70.35
42337;BME280;27987;51.468;5.464;2022-08-04T00:04:13;101058.44;;;25.17;70.49
42337;BME280;27987;51.468;5.464;2022-08-04T00:06:54;101068.44;;;25.15;70.38
42337;BME280;27987;51.468;5.464;2022-08-04T00:09:34;101060.81;;;25.04;69.95
42337;BME280;27987;51.468;5.464;2022-08-04T00:12:06;101060.28;;;25.08;69.40
42337;BME280;27987;51.468;5.464;2022-08-04T00:14:42;101053.78;;;25.11;69.12
42337;BME280;27987;51.468;5.464;2022-08-04T00:17:19;101055.13;;;25.15;69.17
42337;BME280;27987;51.468;5.464;2022-08-04T00:19:48;101062.63;;;25.11;69.66
42337;BME280;27987;51.468;5.464;2022-08-04T00:22:29;101065.50;;;25.02;70.04
42337;BME280;27987;51.468;5.464;2022-08-04T00:25:00;101055.19;;;24.99;69.93
42337;BME280;27987;51.468;5.464;2022-08-04T00:27:28;101048.38;;;24.96;69.41
42337;BME280;27987;51.468;5.464;2022-08-04T00:30:00;101053.88;;;24.95;69.50
42337;BME280;27987;51.468;5.464;2022-08-04T00:32:40;101054.22;;;24.91;69.39
42337;BME280;27987;51.468;5.464;2022-08-04T00:35:08;101048.25;;;24.89;69.59
42337;BME280;27987;51.468;5.464;2022-08-04T00:37:37;101052.06;;;24.87;68.74
42337;BME280;27987;51.468;5.464;2022-08-04T00:40:13;101046.13;;;24.77;69.24
42337;BME280;27987;51.468;5.464;2022-08-04T00:42:50;101046.28;;;24.83;68.84
42337;BME280;27987;51.468;5.464;2022-08-04T00:45:58;101047.75;;;24.86;69.19
42337;BME280;27987;51.468;5.464;2022-08-04T00:48:46;101039.16;;;24.76;69.60
42337;BME280;27987;51.468;5.464;2022-08-04T00:51:29;101042.97;;;24.73;69.99
42337;BME280;27987;51.468;5.464;2022-08-04T00:54:15;101037.69;;;24.65;70.39
42337;BME280;27987;51.468;5.464;2022-08-04T00:57:27;101044.31;;;24.61;70.34
42337;BME280;27987;51.468;5.464;2022-08-04T01:00:05;101035.56;;;24.52;70.22
42337;BME280;27987;51.468;5.464;2022-08-04T01:02:56;101034.88;;;24.58;69.96
42337;BME280;27987;51.468;5.464;2022-08-04T01:05:36;101034.72;;;24.60;70.61
42337;BME280;27987;51.468;5.464;2022-08-04T01:08:37;101028.06;;;24.47;70.70
42337;BME280;27987;51.468;5.464;2022-08-04T01:11:18;101027.06;;;24.48;70.18
42337;BME280;27987;51.468;5.464;2022-08-04T01:14:12;101025.59;;;24.54;69.81
42337;BME280;27987;51.468;5.464;2022-08-04T01:16:50;101031.72;;;24.54;69.26
42337;BME280;27987;51.468;5.464;2022-08-04T01:20:00;101025.75;;;24.44;69.71
42337;BME280;27987;51.468;5.464;2022-08-04T01:23:33;101023.56;;;24.48;69.29
42337;BME280;27987;51.468;5.464;2022-08-04T01:29:14;101017.97;;;24.43;69.24
42337;BME280;27987;51.468;5.464;2022-08-04T01:32:03;101017.31;;;24.41;69.48
42337;BME280;27987;51.468;5.464;2022-08-04T01:34:36;101009.50;;;24.39;69.57
42337;BME280;27987;51.468;5.464;2022-08-04T01:37:15;101011.34;;;24.39;69.29
42337;BME280;27987;51.468;5.464;2022-08-04T01:40:01;101001.72;;;24.29;69.17
42337;BME280;27987;51.468;5.464;2022-08-04T01:42:32;101000.06;;;24.28;69.65
42337;BME280;27987;51.468;5.464;2022-08-04T01:45:04;100990.63;;;24.26;68.76
42337;BME280;27987;51.468;5.464;2022-08-04T01:47:35;101002.88;;;24.35;68.51
42337;BME280;27987;51.468;5.464;2022-08-04T01:50:07;101000.22;;;24.35;68.52
42337;BME280;27987;51.468;5.464;2022-08-04T01:52:36;101007.84;;;24.30;68.80
42337;BME280;27987;51.468;5.464;2022-08-04T01:55:06;100997.06;;;24.31;68.65
42337;BME280;27987;51.468;5.464;2022-08-04T01:57:36;100999.06;;;24.29;68.33
42337;BME280;27987;51.468;5.464;2022-08-04T02:00:09;100996.09;;;24.24;68.62
42337;BME280;27987;51.468;5.464;2022-08-04T02:02:36;100998.38;;;24.27;68.25
42337;BME280;27987;51.468;5.464;2022-08-04T02:05:03;100997.38;;;24.37;67.50
42337;BME280;27987;51.468;5.464;2022-08-04T02:08:11;100992.59;;;24.32;67.81
42337;BME280;27987;51.468;5.464;2022-08-04T02:10:56;100983.81;;;24.31;68.28
42337;BME280;27987;51.468;5.464;2022-08-04T02:13:35;100990.41;;;24.27;67.96
42337;BME280;27987;51.468;5.464;2022-08-04T02:16:14;100982.16;;;24.22;68.38
42337;BME280;27987;51.468;5.464;2022-08-04T02:18:51;100983.63;;;24.25;68.35
42337;BME280;27987;51.468;5.464;2022-08-04T02:21:25;100983.16;;;24.13;68.03
42337;BME280;27987;51.468;5.464;2022-08-04T02:23:59;100980.34;;;24.14;68.25
42337;BME280;27987;51.468;5.464;2022-08-04T02:26:28;100969.03;;;24.12;68.56
42337;BME280;27987;51.468;5.464;2022-08-04T02:29:05;100973.03;;;24.08;68.50
42337;BME280;27987;51.468;5.464;2022-08-04T02:31:44;100972.19;;;24.16;68.66
42337;BME280;27987;51.468;5.464;2022-08-04T02:34:20;100968.09;;;24.05;68.77
42337;BME280;27987;51.468;5.464;2022-08-04T02:36:51;100972.69;;;24.03;68.87
42337;BME280;27987;51.468;5.464;2022-08-04T02:39:21;100973.53;;;23.95;70.16
42337;BME280;27987;51.468;5.464;2022-08-04T02:41:49;100975.88;;;23.90;70.28
42337;BME280;27987;51.468;5.464;2022-08-04T02:44:21;100968.72;;;23.83;70.56
42337;BME280;27987;51.468;5.464;2022-08-04T02:46:51;100966.88;;;23.75;71.64
42337;BME280;27987;51.468;5.464;2022-08-04T02:49:21;100964.25;;;23.67;71.81
42337;BME280;27987;51.468;5.464;2022-08-04T02:51:54;100963.09;;;23.61;71.91
42337;BME280;27987;51.468;5.464;2022-08-04T02:54:26;100957.44;;;23.56;71.96
42337;BME280;27987;51.468;5.464;2022-08-04T02:56:55;100960.09;;;23.48;71.92
42337;BME280;27987;51.468;5.464;2022-08-04T02:59:25;100952.63;;;23.51;72.17
42337;BME280;27987;51.468;5.464;2022-08-04T03:01:56;100946.47;;;23.51;72.56
42337;BME280;27987;51.468;5.464;2022-08-04T03:04:40;100950.78;;;23.44;71.99
42337;BME280;27987;51.468;5.464;2022-08-04T03:07:43;100948.13;;;23.44;72.66
42337;BME280;27987;51.468;5.464;2022-08-04T03:10:57;100940.84;;;23.46;71.88
42337;BME280;27987;51.468;5.464;2022-08-04T03:17:43;100937.38;;;23.45;71.93
42337;BME280;27987;51.468;5.464;2022-08-04T03:20:49;100940.19;;;23.44;71.76
42337;BME280;27987;51.468;5.464;2022-08-04T03:26:56;100944.31;;;23.38;72.20
42337;BME280;27987;51.468;5.464;2022-08-04T03:33:12;100924.09;;;23.29;72.60
42337;BME280;27987;51.468;5.464;2022-08-04T03:36:20;100930.91;;;23.31;72.62
42337;BME280;27987;51.468;5.464;2022-08-04T03:42:38;100940.19;;;23.35;71.04
42337;BME280;27987;51.468;5.464;2022-08-04T03:45:48;100929.75;;;23.42;70.53
42337;BME280;27987;51.468;5.464;2022-08-04T03:51:41;100938.53;;;23.51;69.86
42337;BME280;27987;51.468;5.464;2022-08-04T03:58:42;100937.38;;;23.45;70.61
42337;BME280;27987;51.468;5.464;2022-08-04T04:01:39;100938.84;;;23.39;71.89
42337;BME280;27987;51.468;5.464;2022-08-04T04:04:30;100960.19;;;23.13;72.93
42337;BME280;27987;51.468;5.464;2022-08-04T04:07:42;100960.69;;;23.17;72.31
42337;BME280;27987;51.468;5.464;2022-08-04T04:10:28;100965.00;;;23.18;72.50
42337;BME280;27987;51.468;5.464;2022-08-04T04:13:31;100968.63;;;23.25;72.69
42337;BME280;27987;51.468;5.464;2022-08-04T04:16:23;100978.78;;;23.22;72.54
42337;BME280;27987;51.468;5.464;2022-08-04T04:19:25;100978.59;;;23.23;72.72
42337;BME280;27987;51.468;5.464;2022-08-04T04:22:14;100979.75;;;23.29;73.17
42337;BME280;27987;51.468;5.464;2022-08-04T04:25:11;100979.94;;;23.27;73.47
42337;BME280;27987;51.468;5.464;2022-08-04T04:28:02;100980.94;;;23.34;73.40
42337;BME280;27987;51.468;5.464;2022-08-04T04:30:42;100982.75;;;23.34;73.47
42337;BME280;27987;51.468;5.464;2022-08-04T04:33:25;100984.06;;;23.30;73.97
42337;BME280;27987;51.468;5.464;2022-08-04T04:36:10;100988.56;;;23.37;74.61
42337;BME280;27987;51.468;5.464;2022-08-04T04:39:00;100981.28;;;23.39;74.84
42337;BME280;27987;51.468;5.464;2022-08-04T04:41:56;100973.81;;;23.43;75.03
42337;BME280;27987;51.468;5.464;2022-08-04T04:45:17;100985.78;;;23.55;74.72
42337;BME280;27987;51.468;5.464;2022-08-04T04:48:03;100980.31;;;23.65;74.80
42337;BME280;27987;51.468;5.464;2022-08-04T04:50:49;100970.38;;;23.75;75.16
42337;BME280;27987;51.468;5.464;2022-08-04T04:53:27;100972.53;;;23.88;75.13
42337;BME280;27987;51.468;5.464;2022-08-04T04:56:04;100977.88;;;23.96;74.34
42337;BME280;27987;51.468;5.464;2022-08-04T04:58:37;100985.97;;;24.11;74.28
42337;BME280;27987;51.468;5.464;2022-08-04T05:01:36;100978.84;;;24.12;75.32
42337;BME280;27987;51.468;5.464;2022-08-04T05:04:49;100990.44;;;24.19;74.90
42337;BME280;27987;51.468;5.464;2022-08-04T05:11:12;100992.78;;;24.22;75.26
42337;BME280;27987;51.468;5.464;2022-08-04T05:13:46;100997.72;;;24.33;74.03
42337;BME280;27987;51.468;5.464;2022-08-04T05:16:19;100993.22;;;24.42;74.31
42337;BME280;27987;51.468;5.464;2022-08-04T05:18:53;100985.94;;;24.44;73.66
42337;BME280;27987;51.468;5.464;2022-08-04T05:21:35;100995.19;;;24.57;75.14
42337;BME280;27987;51.468;5.464;2022-08-04T05:24:07;100991.03;;;24.62;76.01
42337;BME280;27987;51.468;5.464;2022-08-04T05:26:40;100985.22;;;24.67;74.86
42337;BME280;27987;51.468;5.464;2022-08-04T05:29:17;100986.00;;;24.76;74.29
42337;BME280;27987;51.468;5.464;2022-08-04T05:31:51;100999.28;;;24.84;75.32
42337;BME280;27987;51.468;5.464;2022-08-04T05:34:23;100993.41;;;24.97;74.82
42337;BME280;27987;51.468;5.464;2022-08-04T05:36:57;100988.19;;;25.11;75.04
42337;BME280;27987;51.468;5.464;2022-08-04T05:39:28;100986.28;;;25.20;75.71
42337;BME280;27987;51.468;5.464;2022-08-04T05:41:58;100979.38;;;25.42;75.15
42337;BME280;27987;51.468;5.464;2022-08-04T05:44:27;100971.75;;;25.62;73.95
42337;BME280;27987;51.468;5.464;2022-08-04T05:46:57;100974.03;;;25.88;70.24
42337;BME280;27987;51.468;5.464;2022-08-04T05:49:26;100965.94;;;26.20;68.09
42337;BME280;27987;51.468;5.464;2022-08-04T05:52:01;100966.88;;;26.42;66.62
42337;BME280;27987;51.468;5.464;2022-08-04T05:54:31;100960.44;;;26.51;65.42
42337;BME280;27987;51.468;5.464;2022-08-04T05:57:02;100967.38;;;26.60;60.73
42337;BME280;27987;51.468;5.464;2022-08-04T05:59:30;100970.47;;;26.79;61.63
42337;BME280;27987;51.468;5.464;2022-08-04T06:01:59;100965.47;;;26.91;59.66
42337;BME280;27987;51.468;5.464;2022-08-04T06:04:32;100968.59;;;26.94;59.92
42337;BME280;27987;51.468;5.464;2022-08-04T06:07:00;100970.09;;;26.97;60.52
42337;BME280;27987;51.468;5.464;2022-08-04T06:09:28;100968.13;;;27.06;61.07
42337;BME280;27987;51.468;5.464;2022-08-04T06:11:58;100970.38;;;27.23;60.33
42337;BME280;27987;51.468;5.464;2022-08-04T06:14:30;100976.72;;;27.22;60.15
42337;BME280;27987;51.468;5.464;2022-08-04T06:16:59;100970.09;;;27.33;62.55
42337;BME280;27987;51.468;5.464;2022-08-04T06:19:29;100974.03;;;27.22;60.20
42337;BME280;27987;51.468;5.464;2022-08-04T06:21:58;100978.72;;;27.35;60.09
42337;BME280;27987;51.468;5.464;2022-08-04T06:24:29;100981.59;;;27.55;59.57
42337;BME280;27987;51.468;5.464;2022-08-04T06:26:57;100983.28;;;27.85;58.52
42337;BME280;27987;51.468;5.464;2022-08-04T06:29:27;100984.38;;;28.18;57.02
42337;BME280;27987;51.468;5.464;2022-08-04T06:32:02;100975.88;;;28.36;54.84
42337;BME280;27987;51.468;5.464;2022-08-04T06:34:39;100988.78;;;28.61;54.00
42337;BME280;27987;51.468;5.464;2022-08-04T06:37:09;100983.97;;;28.85;52.66
42337;BME280;27987;51.468;5.464;2022-08-04T06:39:37;100983.78;;;28.93;52.56
42337;BME280;27987;51.468;5.464;2022-08-04T06:42:05;100988.38;;;29.12;52.41
42337;BME280;27987;51.468;5.464;2022-08-04T06:44:35;100994.41;;;29.28;52.48
42337;BME280;27987;51.468;5.464;2022-08-04T06:47:03;100998.31;;;29.32;54.31
42337;BME280;27987;51.468;5.464;2022-08-04T06:49:36;100997.31;;;29.40;52.50
42337;BME280;27987;51.468;5.464;2022-08-04T06:52:05;100997.09;;;29.28;51.15
42337;BME280;27987;51.468;5.464;2022-08-04T06:54:33;100995.25;;;29.42;50.87
42337;BME280;27987;51.468;5.464;2022-08-04T06:57:01;100999.88;;;29.06;51.16
42337;BME280;27987;51.468;5.464;2022-08-04T06:59:28;100992.56;;;29.28;50.91
42337;BME280;27987;51.468;5.464;2022-08-04T07:01:58;100993.38;;;29.22;50.90
42337;BME280;27987;51.468;5.464;2022-08-04T07:04:25;100998.56;;;28.89;51.29
42337;BME280;27987;51.468;5.464;2022-08-04T07:06:53;100996.75;;;28.54;54.08
42337;BME280;27987;51.468;5.464;2022-08-04T07:09:20;100993.59;;;28.44;53.81
42337;BME280;27987;51.468;5.464;2022-08-04T07:11:48;100998.13;;;28.44;54.55
42337;BME280;27987;51.468;5.464;2022-08-04T07:14:16;100996.75;;;28.26;55.65
42337;BME280;27987;51.468;5.464;2022-08-04T07:16:51;100997.06;;;28.10;55.49
42337;BME280;27987;51.468;5.464;2022-08-04T07:19:21;100996.94;;;27.90;55.09
42337;BME280;27987;51.468;5.464;2022-08-04T07:21:48;101003.88;;;28.12;55.06
42337;BME280;27987;51.468;5.464;2022-08-04T07:24:15;101009.31;;;28.26;54.36
42337;BME280;27987;51.468;5.464;2022-08-04T07:26:42;101005.72;;;28.40;54.27
42337;BME280;27987;51.468;5.464;2022-08-04T07:29:11;101014.38;;;28.49;54.75
42337;BME280;27987;51.468;5.464;2022-08-04T07:31:38;101005.72;;;28.47;55.67
42337;BME280;27987;51.468;5.464;2022-08-04T07:34:05;101011.53;;;28.22;55.68
42337;BME280;27987;51.468;5.464;2022-08-04T07:36:34;101015.88;;;28.23;55.60
42337;BME280;27987;51.468;5.464;2022-08-04T07:39:03;101020.38;;;27.94;57.16
42337;BME280;27987;51.468;5.464;2022-08-04T07:41:30;101026.97;;;27.77;57.70
42337;BME280;27987;51.468;5.464;2022-08-04T07:44:00;101023.28;;;27.99;57.21
42337;BME280;27987;51.468;5.464;2022-08-04T07:46:28;101009.94;;;28.28;55.79
42337;BME280;27987;51.468;5.464;2022-08-04T07:48:56;101010.31;;;28.25;56.15
42337;BME280;27987;51.468;5.464;2022-08-04T07:51:24;101011.50;;;28.44;55.56
42337;BME280;27987;51.468;5.464;2022-08-04T07:53:52;101016.81;;;28.72;54.67
42337;BME280;27987;51.468;5.464;2022-08-04T07:56:24;101015.47;;;28.96;54.53
42337;BME280;27987;51.468;5.464;2022-08-04T07:58:51;101013.00;;;28.53;54.23
42337;BME280;27987;51.468;5.464;2022-08-04T08:01:18;101019.28;;;28.73;54.03
42337;BME280;27987;51.468;5.464;2022-08-04T08:03:46;101011.41;;;28.59;55.16
42337;BME280;27987;51.468;5.464;2022-08-04T08:06:14;101026.00;;;29.04;53.86
42337;BME280;27987;51.468;5.464;2022-08-04T08:08:41;101024.69;;;28.87;54.13
42337;BME280;27987;51.468;5.464;2022-08-04T08:11:10;101031.31;;;28.56;54.40
42337;BME280;27987;51.468;5.464;2022-08-04T08:13:37;101032.09;;;28.85;54.40
42337;BME280;27987;51.468;5.464;2022-08-04T08:16:04;101028.16;;;29.29;54.74
42337;BME280;27987;51.468;5.464;2022-08-04T08:18:32;101037.25;;;29.41;52.20
42337;BME280;27987;51.468;5.464;2022-08-04T08:20:59;101038.31;;;28.92;53.43
42337;BME280;27987;51.468;5.464;2022-08-04T08:23:31;101035.59;;;29.33;53.11
42337;BME280;27987;51.468;5.464;2022-08-04T08:26:02;101034.00;;;29.59;52.39
42337;BME280;27987;51.468;5.464;2022-08-04T08:28:32;101037.47;;;29.53;52.95
42337;BME280;27987;51.468;5.464;2022-08-04T08:30:59;101035.03;;;29.71;52.26
42337;BME280;27987;51.468;5.464;2022-08-04T08:33:26;101027.06;;;30.11;51.51
42337;BME280;27987;51.468;5.464;2022-08-04T08:36:00;101042.94;;;30.00;51.27
42337;BME280;27987;51.468;5.464;2022-08-04T08:38:44;101049.31;;;29.85;52.21
42337;BME280;27987;51.468;5.464;2022-08-04T08:42:01;101055.63;;;29.71;52.33
42337;BME280;27987;51.468;5.464;2022-08-04T08:48:32;101055.69;;;29.91;53.81
42337;BME280;27987;51.468;5.464;2022-08-04T08:51:33;101063.31;;;30.21;52.18
42337;BME280;27987;51.468;5.464;2022-08-04T08:54:46;101075.06;;;30.06;51.91
42337;BME280;27987;51.468;5.464;2022-08-04T08:57:42;101070.94;;;30.04;50.92
42337;BME280;27987;51.468;5.464;2022-08-04T09:00:19;101067.41;;;29.70;51.09
42337;BME280;27987;51.468;5.464;2022-08-04T09:03:33;101065.56;;;29.97;50.59
42337;BME280;27987;51.468;5.464;2022-08-04T09:06:31;101062.63;;;29.65;50.52
42337;BME280;27987;51.468;5.464;2022-08-04T09:09:21;101081.25;;;30.14;48.99
42337;BME280;27987;51.468;5.464;2022-08-04T09:11:57;101081.44;;;30.59;47.85
42337;BME280;27987;51.468;5.464;2022-08-04T09:14:39;101082.50;;;31.23;46.03
42337;BME280;27987;51.468;5.464;2022-08-04T09:17:19;101079.75;;;30.91;46.71
42337;BME280;27987;51.468;5.464;2022-08-04T09:19:56;101080.16;;;30.81;46.19
42337;BME280;27987;51.468;5.464;2022-08-04T09:22:32;101078.47;;;31.00;45.53
42337;BME280;27987;51.468;5.464;2022-08-04T09:25:07;101079.63;;;31.63;44.57
42337;BME280;27987;51.468;5.464;2022-08-04T09:27:49;101079.09;;;31.79;43.79
42337;BME280;27987;51.468;5.464;2022-08-04T09:30:19;101084.47;;;32.11;43.36
42337;BME280;27987;51.468;5.464;2022-08-04T09:33:06;101095.81;;;32.38;42.64
42337;BME280;27987;51.468;5.464;2022-08-04T09:35:52;101096.38;;;31.90;42.76
42337;BME280;27987;51.468;5.464;2022-08-04T09:38:32;101098.81;;;31.28;44.17
42337;BME280;27987;51.468;5.464;2022-08-04T09:41:09;101110.94;;;30.05;46.81
42337;BME280;27987;51.468;5.464;2022-08-04T09:43:48;101106.38;;;29.92;47.60
42337;BME280;27987;51.468;5.464;2022-08-04T09:46:25;101108.84;;;29.87;48.24
42337;BME280;27987;51.468;5.464;2022-08-04T09:48:58;101124.31;;;30.25;48.27
42337;BME280;27987;51.468;5.464;2022-08-04T09:51:44;101130.31;;;30.21;47.48
42337;BME280;27987;51.468;5.464;2022-08-04T09:54:22;101126.84;;;30.54;46.46
42337;BME280;27987;51.468;5.464;2022-08-04T09:56:57;101116.88;;;30.87;45.63
42337;BME280;27987;51.468;5.464;2022-08-04T09:59:35;101136.09;;;30.91;46.23
42337;BME280;27987;51.468;5.464;2022-08-04T10:02:10;101141.47;;;30.51;46.17
42337;BME280;27987;51.468;5.464;2022-08-04T10:04:39;101130.94;;;30.09;46.38
42337;BME280;27987;51.468;5.464;2022-08-04T10:07:46;101126.19;;;29.43;47.26
42337;BME280;27987;51.468;5.464;2022-08-04T10:10:28;101136.66;;;28.96;48.70
42337;BME280;27987;51.468;5.464;2022-08-04T10:13:26;101152.69;;;28.96;48.83
42337;BME280;27987;51.468;5.464;2022-08-04T10:19:06;101181.63;;;28.36;51.25
42337;BME280;27987;51.468;5.464;2022-08-04T10:21:44;101180.44;;;27.66;58.75
42337;BME280;27987;51.468;5.464;2022-08-04T10:24:32;101213.13;;;26.85;63.49
42337;BME280;27987;51.468;5.464;2022-08-04T10:27:08;101202.72;;;26.30;67.38
42337;BME280;27987;51.468;5.464;2022-08-04T10:29:41;101192.34;;;25.41;75.55
42337;BME280;27987;51.468;5.464;2022-08-04T10:32:15;101210.34;;;24.81;81.89
42337;BME280;27987;51.468;5.464;2022-08-04T10:35:01;101207.72;;;24.57;88.34
42337;BME280;27987;51.468;5.464;2022-08-04T10:37:38;101208.16;;;24.44;89.51
42337;BME280;27987;51.468;5.464;2022-08-04T10:40:15;101194.72;;;24.37;90.94
42337;BME280;27987;51.468;5.464;2022-08-04T10:43:07;101178.25;;;24.25;91.55
42337;BME280;27987;51.468;5.464;2022-08-04T10:45:39;101152.88;;;24.31;90.46
42337;BME280;27987;51.468;5.464;2022-08-04T10:48:18;101140.97;;;24.35;90.03
42337;BME280;27987;51.468;5.464;2022-08-04T10:50:58;101119.69;;;24.43;90.88
42337;BME280;27987;51.468;5.464;2022-08-04T10:53:29;101123.34;;;24.75;91.99
42337;BME280;27987;51.468;5.464;2022-08-04T10:56:03;101127.00;;;25.38;89.13
42337;BME280;27987;51.468;5.464;2022-08-04T10:58:38;101126.66;;;26.88;86.17
42337;BME280;27987;51.468;5.464;2022-08-04T11:01:14;101140.22;;;28.26;76.32
42337;BME280;27987;51.468;5.464;2022-08-04T11:03:51;101153.44;;;29.53;67.33
42337;BME280;27987;51.468;5.464;2022-08-04T11:06:25;101158.13;;;29.45;65.84
42337;BME280;27987;51.468;5.464;2022-08-04T11:08:56;101171.44;;;28.25;70.68
42337;BME280;27987;51.468;5.464;2022-08-04T11:11:30;101179.19;;;27.98;71.29
42337;BME280;27987;51.468;5.464;2022-08-04T11:14:03;101173.44;;;27.20;74.30
42337;BME280;27987;51.468;5.464;2022-08-04T11:16:38;101163.50;;;26.84;75.64
42337;BME280;27987;51.468;5.464;2022-08-04T11:19:19;101158.94;;;26.32;78.74
42337;BME280;27987;51.468;5.464;2022-08-04T11:21:58;101146.78;;;26.30;79.24
42337;BME280;27987;51.468;5.464;2022-08-04T11:24:37;101148.41;;;26.16;78.40
42337;BME280;27987;51.468;5.464;2022-08-04T11:27:15;101136.81;;;26.46;79.42
42337;BME280;27987;51.468;5.464;2022-08-04T11:30:02;101145.13;;;27.04;75.08
42337;BME280;27987;51.468;5.464;2022-08-04T11:32:36;101148.50;;;27.58;69.91
42337;BME280;27987;51.468;5.464;2022-08-04T11:35:12;101149.38;;;28.16;69.16
42337;BME280;27987;51.468;5.464;2022-08-04T11:37:48;101156.72;;;28.36;70.31
42337;BME280;27987;51.468;5.464;2022-08-04T11:40:23;101166.91;;;29.32;62.25
42337;BME280;27987;51.468;5.464;2022-08-04T11:43:01;101149.03;;;31.66;56.07
42337;BME280;27987;51.468;5.464;2022-08-04T11:45:35;101153.81;;;32.96;49.32
42337;BME280;27987;51.468;5.464;2022-08-04T11:48:06;101156.53;;;33.33;46.62
42337;BME280;27987;51.468;5.464;2022-08-04T11:50:38;101167.78;;;33.79;44.97
42337;BME280;27987;51.468;5.464;2022-08-04T11:53:07;101158.88;;;32.68;46.59
42337;BME280;27987;51.468;5.464;2022-08-04T11:55:36;101142.41;;;31.17;50.67
42337;BME280;27987;51.468;5.464;2022-08-04T11:58:05;101141.63;;;31.03;51.80
42337;BME280;27987;51.468;5.464;2022-08-04T12:00:40;101149.06;;;30.94;50.52
42337;BME280;27987;51.468;5.464;2022-08-04T12:03:22;101154.72;;;31.31;51.76
42337;BME280;27987;51.468;5.464;2022-08-04T12:06:11;101167.75;;;31.79;46.27
42337;BME280;27987;51.468;5.464;2022-08-04T12:08:57;101158.88;;;32.17;46.07
42337;BME280;27987;51.468;5.464;2022-08-04T12:11:39;101160.31;;;32.45;44.32
42337;BME280;27987;51.468;5.464;2022-08-04T12:17:02;101166.06;;;31.33;47.32
42337;BME280;27987;51.468;5.464;2022-08-04T12:19:38;101159.59;;;30.76;48.24
42337;BME280;27987;51.468;5.464;2022-08-04T12:22:15;101168.03;;;30.86;51.10
42337;BME280;27987;51.468;5.464;2022-08-04T12:24:48;101179.00;;;30.38;50.22
42337;BME280;27987;51.468;5.464;2022-08-04T12:27:23;101179.41;;;30.41;50.27
42337;BME280;27987;51.468;5.464;2022-08-04T12:29:52;101177.34;;;30.37;50.31
42337;BME280;27987;51.468;5.464;2022-08-04T12:32:23;101190.69;;;30.23;52.28
42337;BME280;27987;51.468;5.464;2022-08-04T12:35:08;101188.25;;;30.28;51.50
42337;BME280;27987;51.468;5.464;2022-08-04T12:37:47;101191.31;;;30.25;52.29
42337;BME280;27987;51.468;5.464;2022-08-04T12:40:22;101188.28;;;29.67;53.72
42337;BME280;27987;51.468;5.464;2022-08-04T12:42:57;101193.81;;;29.65;53.09
42337;BME280;27987;51.468;5.464;2022-08-04T12:45:29;101199.53;;;30.10;53.08
42337;BME280;27987;51.468;5.464;2022-08-04T12:47:58;101201.03;;;30.26;52.73
42337;BME280;27987;51.468;5.464;2022-08-04T12:50:29;101206.84;;;30.43;52.02
42337;BME280;27987;51.468;5.464;2022-08-04T12:52:59;101211.78;;;30.40;53.12
42337;BME280;27987;51.468;5.464;2022-08-04T12:55:29;101198.41;;;30.80;52.23
42337;BME280;27987;51.468;5.464;2022-08-04T12:58:14;101206.63;;;30.38;53.36
42337;BME280;27987;51.468;5.464;2022-08-04T13:00:49;101196.84;;;31.37;50.60
42337;BME280;27987;51.468;5.464;2022-08-04T13:03:20;101192.88;;;33.43;43.67
42337;BME280;27987;51.468;5.464;2022-08-04T13:05:53;101196.63;;;32.54;44.22
42337;BME280;27987;51.468;5.464;2022-08-04T13:08:21;101195.38;;;31.93;45.12
42337;BME280;27987;51.468;5.464;2022-08-04T13:10:52;101203.94;;;31.77;45.46
42337;BME280;27987;51.468;5.464;2022-08-04T13:13:25;101201.44;;;32.96;44.71
42337;BME280;27987;51.468;5.464;2022-08-04T13:15:59;101197.75;;;35.14;38.17
42337;BME280;27987;51.468;5.464;2022-08-04T13:18:28;101202.38;;;37.01;34.13
42337;BME280;27987;51.468;5.464;2022-08-04T13:20:56;101205.28;;;37.83;33.03
42337;BME280;27987;51.468;5.464;2022-08-04T13:23:34;101204.66;;;38.68;31.61
42337;BME280;27987;51.468;5.464;2022-08-04T13:26:05;101203.22;;;38.23;31.90
42337;BME280;27987;51.468;5.464;2022-08-04T13:28:33;101199.88;;;36.95;34.23
42337;BME280;27987;51.468;5.464;2022-08-04T13:31:12;101198.72;;;37.13;33.37
42337;BME280;27987;51.468;5.464;2022-08-04T13:33:43;101203.88;;;37.31;33.45
42337;BME280;27987;51.468;5.464;2022-08-04T13:36:12;101200.28;;;37.26;33.37
42337;BME280;27987;51.468;5.464;2022-08-04T13:38:47;101191.06;;;38.30;30.95
42337;BME280;27987;51.468;5.464;2022-08-04T13:41:16;101193.88;;;38.46;31.92
42337;BME280;27987;51.468;5.464;2022-08-04T13:43:48;101181.16;;;38.94;29.68
42337;BME280;27987;51.468;5.464;2022-08-04T13:46:21;101191.94;;;37.54;31.26
42337;BME280;27987;51.468;5.464;2022-08-04T13:48:49;101194.94;;;38.40;30.69
42337;BME280;27987;51.468;5.464;2022-08-04T13:51:20;101189.50;;;38.77;29.33
42337;BME280;27987;51.468;5.464;2022-08-04T13:53:56;101190.94;;;39.58;27.49
42337;BME280;27987;51.468;5.464;2022-08-04T13:56:29;101187.94;;;40.68;25.75
42337;BME280;27987;51.468;5.464;2022-08-04T13:58:59;101191.16;;;41.55;25.45
42337;BME280;27987;51.468;5.464;2022-08-04T14:01:28;101193.00;;;42.05;23.63
42337;BME280;27987;51.468;5.464;2022-08-04T14:04:04;101192.38;;;41.78;24.58
42337;BME280;27987;51.468;5.464;2022-08-04T14:06:46;101190.69;;;39.55;26.39
42337;BME280;27987;51.468;5.464;2022-08-04T14:09:20;101182.88;;;39.05;27.48
42337;BME280;27987;51.468;5.464;2022-08-04T14:11:51;101180.84;;;36.90;30.89
42337;BME280;27987;51.468;5.464;2022-08-04T14:14:23;101189.91;;;35.82;32.29
42337;BME280;27987;51.468;5.464;2022-08-04T14:17:05;101177.72;;;35.79;33.00
42337;BME280;27987;51.468;5.464;2022-08-04T14:19:51;101175.63;;;36.15;32.58
42337;BME280;27987;51.468;5.464;2022-08-04T14:22:31;101163.97;;;36.66;31.72